Time;durP1;ratioP1;P1;durP2;ratioP2;P2;SDS_P1;SDS_P2;PMS_P1;PMS_P2;Temp;Humidity;BMP_temperature;BMP_pressure;BME280_temperature;BME280_humidity;BME280_pressure;Samples;Min_cycle;Max_cycle;Signal;HPM_P1;HPM_P2
2022/06/07 00:00:31;;;;;;;8.07;5.22;;;;;;;;;;4928944;29;20142;-75
2022/06/07 00:02:58;;;;;;;8.50;5.18;;;;;;;;;;4935796;29;20182;-75
2022/06/07 00:05:26;;;;;;;10.40;5.93;;;;;;;;;;4919067;29;20055;-74
2022/06/07 00:07:54;;;;;;;7.63;5.63;;;;;;;;;;4919461;29;20145;-74
2022/06/07 00:10:22;;;;;;;10.75;5.47;;;;;;;;;;4935880;29;20718;-75
2022/06/07 00:12:50;;;;;;;7.55;4.93;;;;;;;;;;4936222;29;20138;-74
2022/06/07 00:15:17;;;;;;;9.52;5.63;;;;;;;;;;4940645;29;20074;-75
2022/06/07 00:17:45;;;;;;;7.65;5.18;;;;;;;;;;4939350;29;20827;-74
2022/06/07 00:20:13;;;;;;;10.77;5.40;;;;;;;;;;4936128;29;20051;-75
2022/06/07 00:22:41;;;;;;;7.70;5.10;;;;;;;;;;4936356;29;20060;-74
2022/06/07 00:25:10;;;;;;;8.57;4.95;;;;;;;;;;4939941;29;20110;-74
2022/06/07 00:27:38;;;;;;;13.95;5.25;;;;;;;;;;4942572;28;20055;-74
2022/06/07 00:30:06;;;;;;;15.20;5.15;;;;;;;;;;4934168;29;20396;-75
2022/06/07 00:32:34;;;;;;;10.75;4.90;;;;;;;;;;4935937;29;20151;-74
2022/06/07 00:35:01;;;;;;;14.82;4.93;;;;;;;;;;4939533;29;20043;-74
2022/06/07 00:37:29;;;;;;;5.95;4.70;;;;;;;;;;4948651;29;20202;-74
2022/06/07 00:39:56;;;;;;;11.07;5.88;;;;;;;;;;4939118;29;20151;-74
2022/06/07 00:42:23;;;;;;;13.15;5.90;;;;;;;;;;4935824;29;20059;-75
2022/06/07 00:44:50;;;;;;;13.70;4.82;;;;;;;;;;4938024;29;20142;-74
2022/06/07 00:47:20;;;;;;;8.73;5.70;;;;;;;;;;4947979;29;20078;-75
2022/06/07 00:49:50;;;;;;;7.60;5.10;;;;;;;;;;4935821;29;20050;-75
2022/06/07 00:52:18;;;;;;;10.75;5.07;;;;;;;;;;4934655;29;21327;-75
2022/06/07 00:54:46;;;;;;;9.13;5.47;;;;;;;;;;4930438;29;20142;-74
2022/06/07 00:57:13;;;;;;;6.80;4.70;;;;;;;;;;4923580;29;20146;-74
2022/06/07 00:59:40;;;;;;;8.10;5.38;;;;;;;;;;4935001;29;20842;-74
2022/06/07 01:02:08;;;;;;;7.07;4.70;;;;;;;;;;4934398;29;20058;-74
2022/06/07 01:04:35;;;;;;;8.30;5.88;;;;;;;;;;4935453;29;20146;-74
2022/06/07 01:12:35;;;;;;;8.07;5.32;;;;;;;;;;4935188;29;20150;-75
2022/06/07 01:15:03;;;;;;;8.82;5.70;;;;;;;;;;4935797;29;20440;-74
2022/06/07 01:17:30;;;;;;;6.53;4.90;;;;;;;;;;4936321;29;20059;-75
2022/06/07 01:19:57;;;;;;;8.50;5.50;;;;;;;;;;4928089;29;20043;-75
2022/06/07 01:22:25;;;;;;;7.80;5.10;;;;;;;;;;4934741;29;20047;-75
2022/06/07 01:24:53;;;;;;;9.50;5.38;;;;;;;;;;4935337;28;20138;-75
2022/06/07 01:27:21;;;;;;;11.57;5.45;;;;;;;;;;4936048;29;20063;-75
2022/06/07 01:29:48;;;;;;;9.00;4.97;;;;;;;;;;4934828;29;20047;-75
2022/06/07 01:32:16;;;;;;;11.00;5.38;;;;;;;;;;4935163;29;20138;-75
2022/06/07 01:34:44;;;;;;;7.80;5.50;;;;;;;;;;4935428;28;20059;-74
2022/06/07 01:37:12;;;;;;;7.20;4.95;;;;;;;;;;4937435;29;20079;-74
2022/06/07 01:42:26;;;;;;;8.52;4.55;;;;;;;;;;4934982;29;20211;-75
2022/06/07 01:44:53;;;;;;;11.77;4.60;;;;;;;;;;4936479;29;20179;-75
2022/06/07 01:47:23;;;;;;;9.77;5.05;;;;;;;;;;4934632;29;20701;-74
2022/06/07 01:49:50;;;;;;;7.82;5.45;;;;;;;;;;4933446;29;20051;-75
2022/06/07 01:52:19;;;;;;;7.40;4.97;;;;;;;;;;4934550;29;20146;-74
2022/06/07 01:54:46;;;;;;;6.20;4.50;;;;;;;;;;4935026;29;20907;-74
2022/06/07 01:57:13;;;;;;;8.00;4.18;;;;;;;;;;4947240;29;20138;-74
2022/06/07 01:59:41;;;;;;;8.48;4.82;;;;;;;;;;4937959;29;20142;-74
2022/06/07 02:02:08;;;;;;;10.38;4.45;;;;;;;;;;4934165;29;20074;-75
2022/06/07 02:04:37;;;;;;;5.85;4.20;;;;;;;;;;4934161;29;20190;-74
2022/06/07 02:07:05;;;;;;;6.85;4.50;;;;;;;;;;4946655;29;20138;-75
2022/06/07 02:09:39;;;;;;;7.93;5.20;;;;;;;;;;4944284;29;20150;-74
2022/06/07 02:12:06;;;;;;;7.47;4.65;;;;;;;;;;4934152;29;20056;-75
2022/06/07 02:14:34;;;;;;;6.78;5.00;;;;;;;;;;4933978;29;20911;-75
2022/06/07 02:17:01;;;;;;;8.23;5.35;;;;;;;;;;4946343;29;20157;-75
2022/06/07 02:19:28;;;;;;;5.78;4.35;;;;;;;;;;4940150;29;20134;-75
2022/06/07 02:21:56;;;;;;;5.80;4.07;;;;;;;;;;4933226;28;20637;-74
2022/06/07 02:24:23;;;;;;;8.52;4.70;;;;;;;;;;4934112;29;20061;-75
2022/06/07 02:26:56;;;;;;;6.93;4.93;;;;;;;;;;4933961;29;20074;-74
2022/06/07 02:29:26;;;;;;;8.75;4.75;;;;;;;;;;4913077;29;20059;-74
2022/06/07 02:31:58;;;;;;;6.63;4.72;;;;;;;;;;4937419;29;20053;-74
2022/06/07 02:34:25;;;;;;;9.70;4.55;;;;;;;;;;4923172;29;21311;-75
2022/06/07 02:36:55;;;;;;;6.32;4.30;;;;;;;;;;4940135;29;20131;-74
2022/06/07 02:39:24;;;;;;;8.95;4.97;;;;;;;;;;4941002;29;20138;-74
2022/06/07 02:41:51;;;;;;;13.88;5.32;;;;;;;;;;4933555;29;20659;-75
2022/06/07 02:44:19;;;;;;;10.80;5.05;;;;;;;;;;4933577;29;20863;-74
2022/06/07 02:46:46;;;;;;;15.32;5.07;;;;;;;;;;4944325;29;20079;-74
2022/06/07 02:49:14;;;;;;;8.43;4.68;;;;;;;;;;4941990;29;20139;-74
2022/06/07 02:51:41;;;;;;;10.10;5.43;;;;;;;;;;4934010;28;20122;-74
2022/06/07 02:54:08;;;;;;;16.52;5.10;;;;;;;;;;4937185;29;20642;-74
2022/06/07 02:56:35;;;;;;;5.85;4.80;;;;;;;;;;4939713;29;20175;-74
2022/06/07 02:59:03;;;;;;;9.30;5.00;;;;;;;;;;4936963;29;20071;-74
2022/06/07 03:01:30;;;;;;;19.40;6.45;;;;;;;;;;4937665;29;20173;-74
2022/06/07 03:03:58;;;;;;;11.85;5.28;;;;;;;;;;4936133;29;20063;-74
2022/06/07 03:06:26;;;;;;;11.57;5.10;;;;;;;;;;4945221;29;20058;-74
2022/06/07 03:08:53;;;;;;;7.30;4.43;;;;;;;;;;4933615;29;20082;-74
2022/06/07 03:11:21;;;;;;;6.85;4.70;;;;;;;;;;4939077;29;20079;-74
2022/06/07 03:13:48;;;;;;;7.65;4.97;;;;;;;;;;4937205;29;20118;-74
2022/06/07 03:16:15;;;;;;;10.75;4.97;;;;;;;;;;4941852;29;20190;-74
2022/06/07 03:18:43;;;;;;;8.65;5.35;;;;;;;;;;4936777;29;20051;-74
2022/06/07 03:21:11;;;;;;;5.68;4.75;;;;;;;;;;4936873;29;20162;-74
2022/06/07 03:23:38;;;;;;;7.18;5.70;;;;;;;;;;4938252;29;20468;-74
2022/06/07 03:26:07;;;;;;;9.27;4.78;;;;;;;;;;4947917;29;20416;-74
2022/06/07 03:28:35;;;;;;;10.60;5.40;;;;;;;;;;4944601;29;20142;-74
2022/06/07 03:31:06;;;;;;;9.05;5.30;;;;;;;;;;4935415;29;20060;-74
2022/06/07 03:33:34;;;;;;;10.98;5.18;;;;;;;;;;4936500;29;20070;-74
2022/06/07 03:36:12;;;;;;;7.70;4.78;;;;;;;;;;4941240;29;20075;-75
2022/06/07 03:38:40;;;;;;;13.40;4.65;;;;;;;;;;4941706;29;20489;-74
2022/06/07 03:41:08;;;;;;;8.55;4.38;;;;;;;;;;4936915;29;20733;-74
2022/06/07 03:43:36;;;;;;;7.25;4.50;;;;;;;;;;4935964;29;20062;-74
2022/06/07 03:46:08;;;;;;;6.90;4.80;;;;;;;;;;4942331;29;20102;-74
2022/06/07 03:48:35;;;;;;;8.98;4.68;;;;;;;;;;4937850;29;20051;-74
2022/06/07 03:51:03;;;;;;;6.68;4.68;;;;;;;;;;4918683;29;20189;-74
2022/06/07 03:53:30;;;;;;;7.18;4.43;;;;;;;;;;4934939;29;20166;-74
2022/06/07 03:55:57;;;;;;;6.97;4.40;;;;;;;;;;4928624;29;20484;-74
2022/06/07 03:58:24;;;;;;;6.70;3.72;;;;;;;;;;4949546;29;20078;-74
2022/06/07 04:00:53;;;;;;;8.50;4.38;;;;;;;;;;4924124;29;20055;-74
2022/06/07 04:03:20;;;;;;;5.43;3.55;;;;;;;;;;4935767;28;20166;-74
2022/06/07 04:05:48;;;;;;;7.07;4.00;;;;;;;;;;4942112;29;20475;-74
2022/06/07 04:08:16;;;;;;;13.68;3.67;;;;;;;;;;4940087;29;20070;-74
2022/06/07 04:10:46;;;;;;;11.00;4.13;;;;;;;;;;4947247;29;20055;-74
2022/06/07 04:13:14;;;;;;;7.88;4.70;;;;;;;;;;4947517;29;20170;-74
2022/06/07 04:15:42;;;;;;;5.97;3.88;;;;;;;;;;4947621;29;20102;-74
2022/06/07 04:18:09;;;;;;;11.95;8.50;;;;;;;;;;4948417;29;20142;-75
2022/06/07 04:20:37;;;;;;;9.82;4.05;;;;;;;;;;4946739;29;20059;-74
2022/06/07 04:23:05;;;;;;;7.15;4.18;;;;;;;;;;4947590;29;20162;-74
2022/06/07 04:25:36;;;;;;;5.93;3.97;;;;;;;;;;4947303;29;20519;-74
2022/06/07 04:28:04;;;;;;;13.48;4.57;;;;;;;;;;4947748;29;20150;-74
2022/06/07 04:30:31;;;;;;;10.40;4.38;;;;;;;;;;4947794;29;20591;-74
2022/06/07 04:32:59;;;;;;;9.57;4.10;;;;;;;;;;4948726;29;20157;-74
2022/06/07 04:35:26;;;;;;;9.07;4.35;;;;;;;;;;4948221;29;20054;-74
2022/06/07 04:37:54;;;;;;;6.70;3.30;;;;;;;;;;4949109;29;20083;-74
2022/06/07 04:40:22;;;;;;;8.77;4.97;;;;;;;;;;4938633;29;20142;-74
2022/06/07 04:42:49;;;;;;;6.80;4.22;;;;;;;;;;4934789;28;20567;-74
2022/06/07 04:45:17;;;;;;;9.32;4.03;;;;;;;;;;4936764;28;20734;-74
2022/06/07 04:47:46;;;;;;;4.55;3.50;;;;;;;;;;4924526;29;20508;-74
2022/06/07 04:50:15;;;;;;;7.20;3.63;;;;;;;;;;4937778;29;20061;-74
2022/06/07 04:52:44;;;;;;;6.43;3.35;;;;;;;;;;4942017;29;20166;-74
2022/06/07 04:55:12;;;;;;;8.65;3.20;;;;;;;;;;4936643;29;20576;-73
2022/06/07 04:57:39;;;;;;;4.32;2.33;;;;;;;;;;4929813;29;20106;-74
2022/06/07 05:00:08;;;;;;;6.68;2.20;;;;;;;;;;4932642;29;20610;-74
2022/06/07 05:02:35;;;;;;;2.85;2.25;;;;;;;;;;4938521;29;20142;-74
2022/06/07 05:05:04;;;;;;;6.28;2.03;;;;;;;;;;4933621;29;20071;-74
2022/06/07 05:07:31;;;;;;;4.55;1.95;;;;;;;;;;4944283;29;20086;-74
2022/06/07 05:09:59;;;;;;;14.82;3.45;;;;;;;;;;4934503;29;20061;-74
2022/06/07 05:12:27;;;;;;;8.38;2.47;;;;;;;;;;4933406;29;20138;-74
2022/06/07 05:14:55;;;;;;;4.57;2.47;;;;;;;;;;4933526;29;20058;-74
2022/06/07 05:17:22;;;;;;;7.80;3.63;;;;;;;;;;4946350;28;20146;-74
2022/06/07 05:19:49;;;;;;;6.05;2.67;;;;;;;;;;4937093;29;20065;-75
2022/06/07 05:22:17;;;;;;;8.55;2.35;;;;;;;;;;4934861;29;20066;-74
2022/06/07 05:24:44;;;;;;;6.00;2.65;;;;;;;;;;4935374;29;20139;-74
2022/06/07 05:27:15;;;;;;;6.03;2.47;;;;;;;;;;4943064;29;20145;-74
2022/06/07 05:29:43;;;;;;;2.40;1.95;;;;;;;;;;4936244;29;20257;-74
2022/06/07 05:32:10;;;;;;;3.33;2.15;;;;;;;;;;4934025;29;20058;-73
2022/06/07 05:34:37;;;;;;;4.97;2.22;;;;;;;;;;4939634;29;20146;-74
2022/06/07 05:37:05;;;;;;;2.85;1.80;;;;;;;;;;4948413;28;20162;-74
2022/06/07 05:39:32;;;;;;;1.95;1.60;;;;;;;;;;4947077;29;20109;-74
2022/06/07 05:42:02;;;;;;;4.40;1.65;;;;;;;;;;4938313;29;20059;-74
2022/06/07 05:44:30;;;;;;;3.28;1.85;;;;;;;;;;4929428;29;20162;-73
2022/06/07 05:46:59;;;;;;;4.05;1.70;;;;;;;;;;4936306;29;20175;-74
2022/06/07 05:49:27;;;;;;;4.03;1.50;;;;;;;;;;4933171;29;20074;-74
2022/06/07 05:51:54;;;;;;;1.40;1.30;;;;;;;;;;4940039;29;20043;-74
2022/06/07 05:54:21;;;;;;;7.35;1.70;;;;;;;;;;4946195;29;20141;-74
2022/06/07 05:56:49;;;;;;;4.18;1.55;;;;;;;;;;4945937;29;20484;-74
2022/06/07 05:59:16;;;;;;;7.95;2.10;;;;;;;;;;4947119;29;20087;-74
2022/06/07 06:01:43;;;;;;;4.60;1.80;;;;;;;;;;4946788;29;20090;-74
2022/06/07 06:04:11;;;;;;;3.60;1.50;;;;;;;;;;4947085;29;20069;-73
2022/06/07 06:06:38;;;;;;;3.47;1.60;;;;;;;;;;4938017;29;20065;-74
2022/06/07 06:11:59;;;;;;;6.85;1.70;;;;;;;;;;4912298;29;20150;-74
2022/06/07 06:14:27;;;;;;;4.70;1.80;;;;;;;;;;4928511;29;20098;-73
2022/06/07 06:16:54;;;;;;;3.80;1.90;;;;;;;;;;4946716;29;20125;-74
2022/06/07 06:19:22;;;;;;;4.70;1.98;;;;;;;;;;4947225;29;20166;-74
2022/06/07 06:21:49;;;;;;;3.83;1.75;;;;;;;;;;4946961;29;20105;-74
2022/06/07 06:24:17;;;;;;;4.10;1.98;;;;;;;;;;4946914;28;20083;-74
2022/06/07 06:26:44;;;;;;;5.95;2.97;;;;;;;;;;4945050;29;20050;-75
2022/06/07 06:29:12;;;;;;;6.28;1.42;;;;;;;;;;4929361;29;20121;-75
2022/06/07 06:31:40;;;;;;;3.03;1.30;;;;;;;;;;4928990;29;20134;-74
2022/06/07 06:34:08;;;;;;;2.72;1.50;;;;;;;;;;4929609;29;20052;-74
2022/06/07 06:36:35;;;;;;;2.03;1.52;;;;;;;;;;4946447;29;20095;-74
2022/06/07 06:39:15;;;;;;;5.22;1.67;;;;;;;;;;4946253;29;20058;-75
2022/06/07 06:41:43;;;;;;;4.57;1.30;;;;;;;;;;4946543;29;20079;-75
2022/06/07 06:44:11;;;;;;;4.82;1.70;;;;;;;;;;4929087;29;20161;-74
2022/06/07 06:46:40;;;;;;;1.30;1.15;;;;;;;;;;4945792;29;20059;-75
2022/06/07 06:49:08;;;;;;;2.42;1.55;;;;;;;;;;4946445;29;20448;-75
2022/06/07 06:51:35;;;;;;;3.47;1.55;;;;;;;;;;4945928;29;20090;-75
2022/06/07 06:54:04;;;;;;;4.35;1.63;;;;;;;;;;4929074;29;20071;-75
2022/06/07 06:56:31;;;;;;;3.58;1.52;;;;;;;;;;4945974;29;20614;-75
2022/06/07 06:58:59;;;;;;;3.72;1.50;;;;;;;;;;4928970;29;20075;-75
2022/06/07 07:01:31;;;;;;;2.75;1.55;;;;;;;;;;4945452;29;20166;-75
2022/06/07 07:04:00;;;;;;;2.90;1.35;;;;;;;;;;4946278;29;20066;-75
2022/06/07 07:06:28;;;;;;;4.93;1.70;;;;;;;;;;4929080;29;20475;-75
2022/06/07 07:08:56;;;;;;;2.35;1.45;;;;;;;;;;4929253;29;20154;-75
2022/06/07 07:11:28;;;;;;;6.82;1.90;;;;;;;;;;4945416;29;20079;-76
2022/06/07 07:13:56;;;;;;;9.63;2.20;;;;;;;;;;4945806;29;20154;-76
2022/06/07 07:16:25;;;;;;;7.95;1.65;;;;;;;;;;4945532;29;20130;-75
2022/06/07 07:18:52;;;;;;;5.82;1.75;;;;;;;;;;4929033;29;20051;-76
2022/06/07 07:21:21;;;;;;;7.43;1.70;;;;;;;;;;4946470;29;20114;-75
2022/06/07 07:23:49;;;;;;;5.03;1.70;;;;;;;;;;4929543;29;20087;-75
2022/06/07 07:26:19;;;;;;;10.98;1.75;;;;;;;;;;4946105;29;20138;-73
2022/06/07 07:28:49;;;;;;;7.80;2.33;;;;;;;;;;4946621;29;20830;-73
2022/06/07 07:31:20;;;;;;;2.47;1.70;;;;;;;;;;4946119;29;20051;-73
2022/06/07 07:33:48;;;;;;;3.03;1.52;;;;;;;;;;4946348;29;20127;-74
2022/06/07 07:36:16;;;;;;;1.42;1.33;;;;;;;;;;4948455;28;20441;-73
2022/06/07 07:38:43;;;;;;;4.00;2.05;;;;;;;;;;4953774;29;20122;-73
2022/06/07 07:41:18;;;;;;;3.17;1.63;;;;;;;;;;4950382;29;20055;-73
2022/06/07 07:43:46;;;;;;;3.08;1.75;;;;;;;;;;4949483;29;20130;-73
2022/06/07 07:46:15;;;;;;;2.22;1.67;;;;;;;;;;4933682;29;20087;-73
2022/06/07 07:48:42;;;;;;;10.57;2.00;;;;;;;;;;4951135;29;20273;-73
2022/06/07 07:51:13;;;;;;;5.45;1.75;;;;;;;;;;4948259;29;20139;-74
2022/06/07 07:53:44;;;;;;;5.05;1.92;;;;;;;;;;4947792;29;20055;-75
2022/06/07 07:56:11;;;;;;;3.97;1.73;;;;;;;;;;4949708;29;20437;-74
2022/06/07 07:58:39;;;;;;;5.15;2.05;;;;;;;;;;4950182;29;20142;-74
2022/06/07 08:01:10;;;;;;;5.30;2.10;;;;;;;;;;4932637;29;20091;-75
2022/06/07 08:03:39;;;;;;;8.68;2.33;;;;;;;;;;4948677;29;20836;-75
2022/06/07 08:06:15;;;;;;;5.38;2.08;;;;;;;;;;4949675;29;20066;-75
2022/06/07 08:08:42;;;;;;;4.32;1.75;;;;;;;;;;4950248;29;20097;-75
2022/06/07 08:11:10;;;;;;;2.97;1.52;;;;;;;;;;4949599;29;20126;-75
2022/06/07 08:13:38;;;;;;;4.63;1.50;;;;;;;;;;4949871;29;20070;-75
2022/06/07 08:16:06;;;;;;;3.78;1.63;;;;;;;;;;4949574;29;20047;-75
2022/06/07 08:18:34;;;;;;;7.45;1.83;;;;;;;;;;4949451;29;20044;-74
2022/06/07 08:21:04;;;;;;;5.05;1.73;;;;;;;;;;4948948;29;20170;-75
2022/06/07 08:23:32;;;;;;;5.25;1.52;;;;;;;;;;4949423;29;20114;-74
2022/06/07 08:26:00;;;;;;;5.45;2.03;;;;;;;;;;4949523;29;20143;-75
2022/06/07 08:28:28;;;;;;;5.63;2.03;;;;;;;;;;4949151;29;20102;-75
2022/06/07 08:30:55;;;;;;;4.15;1.88;;;;;;;;;;4948689;29;20666;-75
2022/06/07 08:39:00;;;;;;;3.65;1.92;;;;;;;;;;4949112;29;20170;-75
2022/06/07 08:41:37;;;;;;;6.63;1.60;;;;;;;;;;4947889;29;20055;-75
2022/06/07 08:44:19;;;;;;;3.90;1.50;;;;;;;;;;4948765;29;20158;-75
2022/06/07 08:46:47;;;;;;;7.00;1.92;;;;;;;;;;4948858;29;20083;-75
2022/06/07 08:49:14;;;;;;;3.35;1.38;;;;;;;;;;4947791;28;20138;-75
2022/06/07 08:52:11;;;;;;;4.38;1.65;;;;;;;;;;4948498;29;20134;-76
2022/06/07 08:54:40;;;;;;;7.80;2.10;;;;;;;;;;4940028;29;20130;-75
2022/06/07 08:57:16;;;;;;;2.83;1.45;;;;;;;;;;4948662;29;20077;-73
2022/06/07 08:59:47;;;;;;;3.78;1.70;;;;;;;;;;4948664;29;20079;-73
2022/06/07 09:02:26;;;;;;;10.95;1.67;;;;;;;;;;4931265;29;20051;-73
2022/06/07 09:04:56;;;;;;;2.88;1.80;;;;;;;;;;4948365;29;20444;-74
2022/06/07 09:07:23;;;;;;;5.45;2.15;;;;;;;;;;4948515;29;20075;-75
2022/06/07 09:12:40;;;;;;;8.43;1.98;;;;;;;;;;4929422;29;20151;-75
2022/06/07 09:15:16;;;;;;;6.35;2.05;;;;;;;;;;4920397;29;20237;-75
2022/06/07 09:17:51;;;;;;;1.92;1.60;;;;;;;;;;4948285;29;20082;-75
2022/06/07 09:20:21;;;;;;;5.35;1.85;;;;;;;;;;4947614;29;20469;-75
2022/06/07 09:22:54;;;;;;;11.90;2.28;;;;;;;;;;4940406;29;20046;-74
2022/06/07 09:25:23;;;;;;;2.15;1.65;;;;;;;;;;4947760;29;20102;-74
2022/06/07 09:27:51;;;;;;;6.20;1.73;;;;;;;;;;4947917;29;20692;-74
2022/06/07 09:30:28;;;;;;;2.38;1.50;;;;;;;;;;4946501;29;20055;-74
2022/06/07 09:32:55;;;;;;;4.10;1.50;;;;;;;;;;4948361;29;20142;-74
2022/06/07 09:35:43;;;;;;;7.40;1.83;;;;;;;;;;4947775;29;20134;-74
2022/06/07 09:38:29;;;;;;;8.20;1.92;;;;;;;;;;4948105;29;20055;-74
2022/06/07 09:41:01;;;;;;;3.53;1.60;;;;;;;;;;4928690;29;20147;-74
2022/06/07 09:43:38;;;;;;;2.63;1.60;;;;;;;;;;4915295;29;20134;-74
2022/06/07 09:46:10;;;;;;;4.05;1.63;;;;;;;;;;4947633;29;20776;-74
2022/06/07 09:48:45;;;;;;;6.30;1.98;;;;;;;;;;4930641;29;20102;-74
2022/06/07 09:51:23;;;;;;;4.85;1.77;;;;;;;;;;4947495;29;20118;-74
2022/06/07 09:54:04;;;;;;;5.05;1.70;;;;;;;;;;4947654;29;20150;-74
2022/06/07 09:57:07;;;;;;;4.28;1.80;;;;;;;;;;4947555;29;20051;-74
2022/06/07 09:59:35;;;;;;;3.70;1.48;;;;;;;;;;4887554;29;20136;-75
2022/06/07 10:02:21;;;;;;;1.73;1.20;;;;;;;;;;4935996;29;20051;-75
2022/06/07 10:04:54;;;;;;;6.35;1.77;;;;;;;;;;4946592;29;20053;-75
2022/06/07 10:07:32;;;;;;;5.97;1.85;;;;;;;;;;4947511;29;20110;-75
2022/06/07 10:09:59;;;;;;;2.17;1.30;;;;;;;;;;4930360;29;20567;-74
2022/06/07 10:12:41;;;;;;;4.53;1.50;;;;;;;;;;4945902;29;20853;-74
2022/06/07 10:15:10;;;;;;;4.45;1.33;;;;;;;;;;4939759;29;20074;-74
2022/06/07 10:17:40;;;;;;;2.15;1.20;;;;;;;;;;4946819;29;20055;-74
2022/06/07 10:20:22;;;;;;;2.60;1.23;;;;;;;;;;4930108;29;20050;-74
2022/06/07 10:23:08;;;;;;;4.38;1.50;;;;;;;;;;4930268;29;20063;-74
2022/06/07 10:25:50;;;;;;;3.33;1.27;;;;;;;;;;4946566;29;20142;-74
2022/06/07 10:28:22;;;;;;;2.50;1.50;;;;;;;;;;4929893;29;20082;-74
2022/06/07 10:31:02;;;;;;;2.72;1.10;;;;;;;;;;4947338;29;20055;-75
2022/06/07 10:33:30;;;;;;;2.42;1.10;;;;;;;;;;4947145;29;20170;-75
2022/06/07 10:36:16;;;;;;;6.63;1.40;;;;;;;;;;4947177;29;20047;-73
2022/06/07 10:38:59;;;;;;;3.65;1.00;;;;;;;;;;4947051;29;20141;-73
2022/06/07 10:41:28;;;;;;;5.95;1.40;;;;;;;;;;4946169;29;20083;-73
2022/06/07 10:44:11;;;;;;;3.33;1.15;;;;;;;;;;4943484;29;20162;-73
2022/06/07 10:46:40;;;;;;;4.00;0.90;;;;;;;;;;4946239;29;20142;-73
2022/06/07 10:49:17;;;;;;;7.07;1.00;;;;;;;;;;4946682;29;20061;-74
2022/06/07 10:55:01;;;;;;;4.03;1.40;;;;;;;;;;4950321;28;20055;-74
2022/06/07 10:57:40;;;;;;;2.47;1.35;;;;;;;;;;4945912;29;20059;-74
2022/06/07 11:00:31;;;;;;;2.38;1.17;;;;;;;;;;4945011;29;20122;-73
2022/06/07 11:03:17;;;;;;;2.03;1.23;;;;;;;;;;4935972;29;20735;-73
2022/06/07 11:11:24;;;;;;;5.40;1.20;;;;;;;;;;4945155;28;20118;-73
2022/06/07 11:14:05;;;;;;;5.82;1.95;;;;;;;;;;4949139;29;20130;-73
2022/06/07 11:16:32;;;;;;;7.53;1.33;;;;;;;;;;4948958;29;20142;-73
2022/06/07 11:19:06;;;;;;;6.70;1.48;;;;;;;;;;4933179;29;20082;-73
2022/06/07 11:21:35;;;;;;;7.47;1.42;;;;;;;;;;4949805;29;20143;-73
2022/06/07 11:24:22;;;;;;;3.13;1.40;;;;;;;;;;4949165;29;20571;-73
2022/06/07 11:26:52;;;;;;;6.85;1.58;;;;;;;;;;4950711;29;20051;-74
2022/06/07 11:29:21;;;;;;;2.22;1.42;;;;;;;;;;4949761;29;20452;-74
2022/06/07 11:31:49;;;;;;;2.50;1.50;;;;;;;;;;4932364;29;20489;-74
2022/06/07 11:34:25;;;;;;;2.72;1.23;;;;;;;;;;4949333;29;20062;-74
2022/06/07 11:37:11;;;;;;;4.78;1.40;;;;;;;;;;4948047;29;20125;-74
2022/06/07 11:39:38;;;;;;;;;;;;;;;;;;4949084;29;20136;-74
2022/06/07 11:42:08;;;;;;;2.53;1.30;;;;;;;;;;4949712;29;20000;-73
2022/06/07 11:44:37;;;;;;;6.15;1.50;;;;;;;;;;4950183;29;20744;-73
2022/06/07 11:47:08;;;;;;;5.28;1.50;;;;;;;;;;4948501;29;20075;-74
2022/06/07 11:49:39;;;;;;;8.10;2.00;;;;;;;;;;4948472;29;20051;-74
2022/06/07 11:52:13;;;;;;;6.13;1.45;;;;;;;;;;4946213;29;20074;-74
2022/06/07 11:54:48;;;;;;;4.68;1.63;;;;;;;;;;4948535;29;20063;-74
2022/06/07 11:57:37;;;;;;;5.18;1.42;;;;;;;;;;4947651;28;20761;-74
2022/06/07 12:00:17;;;;;;;4.30;1.52;;;;;;;;;;4948437;29;20796;-74
2022/06/07 12:02:57;;;;;;;3.65;1.40;;;;;;;;;;4949407;29;20459;-74
2022/06/07 12:05:45;;;;;;;4.25;1.40;;;;;;;;;;4948572;29;20054;-74
2022/06/07 12:08:37;;;;;;;5.43;1.73;;;;;;;;;;4930289;29;20488;-74
2022/06/07 12:11:23;;;;;;;7.75;1.65;;;;;;;;;;4930251;29;20083;-74
2022/06/07 12:14:01;;;;;;;5.22;1.77;;;;;;;;;;4930714;29;20059;-74
2022/06/07 12:16:42;;;;;;;3.90;1.50;;;;;;;;;;4945064;29;20188;-74
2022/06/07 12:19:36;;;;;;;1.95;1.30;;;;;;;;;;4948769;29;20082;-74
2022/06/07 12:22:06;;;;;;;7.22;1.50;;;;;;;;;;4929434;29;20086;-74
2022/06/07 12:24:42;;;;;;;3.40;1.40;;;;;;;;;;4945321;29;20701;-74
2022/06/07 12:27:24;;;;;;;2.90;0.93;;;;;;;;;;4943785;29;20138;-74
2022/06/07 12:30:00;;;;;;;2.55;0.93;;;;;;;;;;4948802;29;21070;-74
2022/06/07 12:32:35;;;;;;;1.70;0.98;;;;;;;;;;4948142;29;20055;-73
2022/06/07 12:35:05;;;;;;;1.88;1.25;;;;;;;;;;4948439;29;20078;-74
2022/06/07 12:37:35;;;;;;;5.28;1.30;;;;;;;;;;4948755;29;20134;-73
2022/06/07 12:40:03;;;;;;;2.28;0.93;;;;;;;;;;4949049;29;20051;-73
2022/06/07 12:42:34;;;;;;;3.90;1.42;;;;;;;;;;4948297;29;20667;-73
2022/06/07 12:45:16;;;;;;;5.15;1.60;;;;;;;;;;4948946;29;20879;-74
2022/06/07 12:47:44;;;;;;;2.90;1.20;;;;;;;;;;4948669;29;20547;-73
2022/06/07 12:50:18;;;;;;;2.20;1.10;;;;;;;;;;4948418;29;20082;-74
2022/06/07 12:52:53;;;;;;;3.95;1.35;;;;;;;;;;4947153;29;20796;-74
2022/06/07 12:55:22;;;;;;;5.53;1.07;;;;;;;;;;4947868;29;20840;-74
2022/06/07 12:57:52;;;;;;;3.95;1.65;;;;;;;;;;4930741;29;20132;-73
2022/06/07 13:00:25;;;;;;;5.47;1.88;;;;;;;;;;4940469;29;20154;-73
2022/06/07 13:03:06;;;;;;;4.10;1.33;;;;;;;;;;4948610;29;20090;-73
2022/06/07 13:05:35;;;;;;;4.53;1.48;;;;;;;;;;4939262;29;20059;-73
2022/06/07 13:08:04;;;;;;;7.32;1.52;;;;;;;;;;4948440;29;20099;-73
2022/06/07 13:10:33;;;;;;;8.00;1.67;;;;;;;;;;4948545;29;20126;-73
2022/06/07 13:13:02;;;;;;;2.25;1.30;;;;;;;;;;4948042;29;20126;-74
2022/06/07 13:15:35;;;;;;;5.05;1.65;;;;;;;;;;4948008;29;20154;-73
2022/06/07 13:18:04;;;;;;;5.07;2.08;;;;;;;;;;4931105;29;20047;-74
2022/06/07 13:20:34;;;;;;;4.78;1.60;;;;;;;;;;4946764;29;20910;-73
2022/06/07 13:23:11;;;;;;;3.60;1.42;;;;;;;;;;4947374;29;20170;-74
2022/06/07 13:25:38;;;;;;;2.90;1.27;;;;;;;;;;4946056;29;20563;-74
2022/06/07 13:28:07;;;;;;;3.30;1.30;;;;;;;;;;4946793;29;20243;-73
2022/06/07 13:30:38;;;;;;;2.72;1.50;;;;;;;;;;4946769;29;20129;-74
2022/06/07 13:33:12;;;;;;;4.63;1.30;;;;;;;;;;4942570;29;20050;-74
2022/06/07 13:36:00;;;;;;;9.35;1.60;;;;;;;;;;4946594;28;20130;-74
2022/06/07 13:38:30;;;;;;;2.00;1.45;;;;;;;;;;4929470;29;20053;-74
2022/06/07 13:41:05;;;;;;;7.75;2.10;;;;;;;;;;4947005;29;20470;-74
2022/06/07 13:43:34;;;;;;;3.93;1.30;;;;;;;;;;4947657;29;20594;-74
2022/06/07 13:46:06;;;;;;;4.00;1.20;;;;;;;;;;4945956;29;20327;-74
2022/06/07 13:54:17;;;;;;;3.33;1.13;;;;;;;;;;4946472;29;20055;-74
2022/06/07 13:56:44;;;;;;;8.27;1.20;;;;;;;;;;4947231;29;20174;-74
2022/06/07 13:59:13;;;;;;;3.50;1.60;;;;;;;;;;4929970;29;20743;-74
2022/06/07 14:01:43;;;;;;;2.17;1.40;;;;;;;;;;4947473;29;20137;-74
2022/06/07 14:04:24;;;;;;;6.30;1.25;;;;;;;;;;4947402;29;20166;-73
2022/06/07 14:06:52;;;;;;;2.17;1.40;;;;;;;;;;4946736;29;20139;-74
2022/06/07 14:09:23;;;;;;;5.22;1.45;;;;;;;;;;4947497;29;20055;-73
2022/06/07 14:11:53;;;;;;;4.50;1.52;;;;;;;;;;4928485;29;20090;-73
2022/06/07 14:14:22;;;;;;;2.83;1.35;;;;;;;;;;4944014;29;20051;-74
2022/06/07 14:16:51;;;;;;;4.38;1.70;;;;;;;;;;4947212;29;20184;-74
2022/06/07 14:19:30;;;;;;;4.80;1.85;;;;;;;;;;4946984;29;20078;-73
2022/06/07 14:21:58;;;;;;;3.03;1.60;;;;;;;;;;4946428;29;20172;-74
2022/06/07 14:24:26;;;;;;;6.68;1.50;;;;;;;;;;4945492;29;20124;-73
2022/06/07 14:26:53;;;;;;;3.65;1.52;;;;;;;;;;4946935;29;20409;-73
2022/06/07 14:29:22;;;;;;;4.55;1.60;;;;;;;;;;4930133;29;20163;-73
2022/06/07 14:31:50;;;;;;;6.95;1.60;;;;;;;;;;4947066;29;20138;-74
2022/06/07 14:34:17;;;;;;;6.60;1.80;;;;;;;;;;4947895;29;20098;-74
2022/06/07 14:36:44;;;;;;;3.97;1.52;;;;;;;;;;4939312;29;20650;-74
2022/06/07 14:39:16;;;;;;;5.45;1.52;;;;;;;;;;4947052;29;20150;-74
2022/06/07 14:41:43;;;;;;;5.40;1.73;;;;;;;;;;4947115;29;20086;-74
2022/06/07 14:44:11;;;;;;;7.28;1.48;;;;;;;;;;4942448;29;20051;-74
2022/06/07 14:46:40;;;;;;;7.32;1.90;;;;;;;;;;4927772;29;20055;-73
2022/06/07 14:49:14;;;;;;;7.20;1.35;;;;;;;;;;4946984;29;20468;-74
2022/06/07 14:51:41;;;;;;;5.95;1.75;;;;;;;;;;4945923;29;20086;-74
2022/06/07 14:54:15;;;;;;;3.20;1.33;;;;;;;;;;4940564;29;20146;-74
2022/06/07 14:56:43;;;;;;;5.72;1.67;;;;;;;;;;4944478;29;20051;-74
2022/06/07 14:59:10;;;;;;;2.38;1.17;;;;;;;;;;4945937;29;20130;-74
2022/06/07 15:01:41;;;;;;;1.52;1.30;;;;;;;;;;4946848;29;20130;-74
2022/06/07 15:04:13;;;;;;;1.60;1.42;;;;;;;;;;4946596;29;20135;-74
2022/06/07 15:06:41;;;;;;;1.35;1.17;;;;;;;;;;4946234;29;20485;-74
2022/06/07 15:09:16;;;;;;;6.05;1.30;;;;;;;;;;4929753;29;20129;-73
2022/06/07 15:11:44;;;;;;;1.20;1.10;;;;;;;;;;4946319;29;20137;-73
2022/06/07 15:14:13;;;;;;;1.85;1.20;;;;;;;;;;4945211;29;20752;-74
2022/06/07 15:16:43;;;;;;;1.77;1.50;;;;;;;;;;4946711;29;20413;-73
2022/06/07 15:19:17;;;;;;;2.60;1.40;;;;;;;;;;4946922;29;20114;-73
2022/06/07 15:21:47;;;;;;;2.80;1.38;;;;;;;;;;4945754;29;20469;-74
2022/06/07 15:24:16;;;;;;;6.35;1.40;;;;;;;;;;4946543;29;20103;-74
2022/06/07 15:26:44;;;;;;;5.93;1.38;;;;;;;;;;4946144;29;20130;-74
2022/06/07 15:29:12;;;;;;;6.53;1.60;;;;;;;;;;4946786;29;20058;-74
2022/06/07 15:31:40;;;;;;;4.38;1.40;;;;;;;;;;4946337;29;20083;-74
2022/06/07 15:34:09;;;;;;;5.75;1.20;;;;;;;;;;4946228;29;20158;-74
2022/06/07 15:36:37;;;;;;;1.50;0.95;;;;;;;;;;4945890;29;20055;-74